Terminal Aerodrome Forecast
Issued by NWS Green Bay, WI

Home | Current Version | Previous Version | Text Only | Print | Product List | Glossary Off
Versions: 1 2 3 4 5 6 7 8 9 10 11 12 13 14 15 16 17 18 19 20 21 22 23 24 25 26 27 28 29 30 31

000
FTUS43 KGRB 040400 AAB
TAFGRB
TAF AMD
KGRB 040409Z 0404/0424 33010KT P6SM -SHRA SCT060 BKN080
      TEMPO 0405/0407 3SM TSRA BKN060CB
     FM040900 32006KT P6SM SCT070 BKN090
     FM041500 04010G16KT P6SM SCT060
     FM042100 06008KT P6SM SCT250=

USA.gov is the U.S. government's official web portal to all federal, state and local government web resources and services.